Time;durP1;ratioP1;P1;durP2;ratioP2;P2;SDS_P1;SDS_P2;PMS_P1;PMS_P2;Temp;Humidity;BMP_temperature;BMP_pressure;BME280_temperature;BME280_humidity;BME280_pressure;Samples;Min_cycle;Max_cycle;Signal;HPM_P1;HPM_P2
2021/07/06 00:01:29;;;;;;;;;;;16.70;92.50;;;;;;5073863;28;20083;-70
2021/07/06 00:03:54;;;;;;;;;;;16.70;92.60;;;;;;5076663;28;19920;-70
2021/07/06 00:06:20;;;;;;;;;;;16.70;92.50;;;;;;5076160;28;19951;-69
2021/07/06 00:08:45;;;;;;;;;;;16.70;92.40;;;;;;5076008;28;19965;-70
2021/07/06 00:11:11;;;;;;;;;;;16.70;92.40;;;;;;5076524;28;19963;-70
2021/07/06 00:13:36;;;;;;;;;;;16.70;92.40;;;;;;5079306;28;19916;-70
2021/07/06 00:16:02;;;;;;;;;;;16.80;92.30;;;;;;5080458;28;19916;-70
2021/07/06 00:18:27;;;;;;;;;;;16.70;92.40;;;;;;5077148;28;19951;-70
2021/07/06 00:20:53;;;;;;;;;;;16.80;92.30;;;;;;5078621;28;20458;-69
2021/07/06 00:23:19;;;;;;;;;;;16.80;92.10;;;;;;5077175;28;19922;-69
2021/07/06 00:25:44;;;;;;;;;;;16.80;92.20;;;;;;5077573;28;19908;-69
2021/07/06 00:28:09;;;;;;;;;;;16.80;92.00;;;;;;5059957;28;20019;-70
2021/07/06 00:30:35;;;;;;;;;;;16.90;91.90;;;;;;5072561;28;19920;-69
2021/07/06 00:33:01;;;;;;;;;;;16.90;91.90;;;;;;5075452;28;19912;-69
2021/07/06 00:35:26;;;;;;;;;;;16.90;91.90;;;;;;5076943;28;20173;-70
2021/07/06 00:37:52;;;;;;;;;;;16.90;91.90;;;;;;5078967;28;20440;-70
2021/07/06 00:40:17;;;;;;;;;;;16.90;91.80;;;;;;5079479;28;19908;-70
2021/07/06 00:42:44;;;;;;;;;;;17.00;91.70;;;;;;5049639;28;19917;-68
2021/07/06 00:45:10;;;;;;;;;;;17.00;91.90;;;;;;5075603;28;19912;-68
2021/07/06 00:47:36;;;;;;;;;;;16.90;91.90;;;;;;5072527;28;20479;-70
2021/07/06 00:50:05;;;;;;;;;;;16.90;91.70;;;;;;5070823;28;19977;-70
2021/07/06 00:52:30;;;;;;;;;;;17.00;91.80;;;;;;5071243;28;20389;-70
2021/07/06 00:54:56;;;;;;;;;;;16.90;91.90;;;;;;5078890;28;19951;-70
2021/07/06 00:57:29;;;;;;;;;;;16.90;91.70;;;;;;5076308;28;19916;-69
2021/07/06 00:59:58;;;;;;;;;;;17.00;91.80;;;;;;5071338;28;19939;-70
2021/07/06 01:02:24;;;;;;;;;;;16.90;92.00;;;;;;5070782;28;19989;-69
2021/07/06 01:04:50;;;;;;;;;;;16.90;91.90;;;;;;5075789;28;20416;-69
2021/07/06 01:07:15;;;;;;;;;;;16.90;91.90;;;;;;5078635;28;19916;-69
2021/07/06 01:09:41;;;;;;;;;;;17.00;92.00;;;;;;5066292;28;19964;-69
2021/07/06 01:12:06;;;;;;;;;;;17.00;91.80;;;;;;5070826;28;20053;-70
2021/07/06 01:14:32;;;;;;;;;;;17.00;91.70;;;;;;5082933;28;19927;-70
2021/07/06 01:16:57;;;;;;;;;;;17.00;91.50;;;;;;5061154;28;20361;-68
2021/07/06 01:19:25;;;;;;;;;;;17.00;91.60;;;;;;5081502;28;20314;-69
2021/07/06 01:21:51;;;;;;;;;;;17.00;91.50;;;;;;5083158;28;20310;-70
2021/07/06 01:24:16;;;;;;;;;;;17.00;91.40;;;;;;5084788;28;19928;-70
2021/07/06 01:26:42;;;;;;;;;;;17.00;91.40;;;;;;5084761;28;19916;-69
2021/07/06 01:29:07;;;;;;;;;;;17.00;91.30;;;;;;5084250;28;20341;-69
2021/07/06 01:31:33;;;;;;;;;;;17.00;91.20;;;;;;5082526;28;20080;-69
2021/07/06 01:33:58;;;;;;;;;;;17.00;91.20;;;;;;5083370;28;20066;-70
2021/07/06 01:36:24;;;;;;;;;;;17.10;91.40;;;;;;5078076;28;20012;-69
2021/07/06 01:38:49;;;;;;;;;;;17.10;91.30;;;;;;5080130;28;19927;-68
2021/07/06 01:41:16;;;;;;;;;;;17.00;91.20;;;;;;5079329;28;20412;-70
2021/07/06 01:43:42;;;;;;;;;;;17.10;91.30;;;;;;5082450;28;19967;-69
2021/07/06 01:46:07;;;;;;;;;;;17.00;91.10;;;;;;5085735;28;20024;-69
2021/07/06 01:48:33;;;;;;;;;;;17.00;91.10;;;;;;5083367;28;19985;-70
2021/07/06 01:50:58;;;;;;;;;;;17.10;91.00;;;;;;5078436;28;20296;-70
2021/07/06 01:53:24;;;;;;;;;;;17.10;90.90;;;;;;5084592;28;19977;-69
2021/07/06 01:55:50;;;;;;;;;;;17.20;91.00;;;;;;5072806;28;19934;-70
2021/07/06 01:58:17;;;;;;;;;;;17.20;90.80;;;;;;5074212;28;20015;-69
2021/07/06 02:00:46;;;;;;;;;;;17.20;90.80;;;;;;5075160;28;20034;-69
2021/07/06 02:03:12;;;;;;;;;;;17.20;90.90;;;;;;5082714;28;19926;-68
2021/07/06 02:05:39;;;;;;;;;;;17.20;91.00;;;;;;5081664;28;20371;-69
2021/07/06 02:08:12;;;;;;;;;;;17.20;90.80;;;;;;5080658;28;20481;-68
2021/07/06 02:10:38;;;;;;;;;;;17.20;90.90;;;;;;5066584;28;19924;-67
2021/07/06 02:13:07;;;;;;;;;;;17.20;90.90;;;;;;5079165;28;19912;-67
2021/07/06 02:15:33;;;;;;;;;;;17.20;91.00;;;;;;5079262;28;19995;-67
2021/07/06 02:17:59;;;;;;;;;;;17.20;90.90;;;;;;5078944;28;20023;-69
2021/07/06 02:20:25;;;;;;;;;;;17.20;90.70;;;;;;5086499;28;19995;-68
2021/07/06 02:22:51;;;;;;;;;;;17.20;90.70;;;;;;5060002;28;20005;-67
2021/07/06 02:25:17;;;;;;;;;;;17.20;90.60;;;;;;5072934;28;19949;-69
2021/07/06 02:27:45;;;;;;;;;;;17.20;90.70;;;;;;5082398;28;19916;-68
2021/07/06 02:30:11;;;;;;;;;;;17.20;90.70;;;;;;5085495;28;19952;-68
2021/07/06 02:32:37;;;;;;;;;;;17.20;90.80;;;;;;5083421;28;19920;-68
2021/07/06 02:35:04;;;;;;;;;;;17.20;90.70;;;;;;5078152;28;19919;-68
2021/07/06 02:37:29;;;;;;;;;;;17.20;90.70;;;;;;5080089;28;19923;-70
2021/07/06 02:39:55;;;;;;;;;;;17.20;90.80;;;;;;5080797;28;19908;-68
2021/07/06 02:42:20;;;;;;;;;;;17.20;91.00;;;;;;5077105;28;20551;-69
2021/07/06 02:44:45;;;;;;;;;;;17.20;91.00;;;;;;5074219;28;19920;-68
2021/07/06 02:47:11;;;;;;;;;;;17.10;91.20;;;;;;5085465;28;20481;-69
2021/07/06 02:49:36;;;;;;;;;;;17.10;91.60;;;;;;5080599;28;19923;-69
2021/07/06 02:52:02;;;;;;;;;;;17.00;91.50;;;;;;5076026;28;19928;-69
2021/07/06 02:54:27;;;;;;;;;;;17.10;91.60;;;;;;5078005;28;19912;-69
2021/07/06 02:56:53;;;;;;;;;;;17.10;91.50;;;;;;5078474;28;19916;-69
2021/07/06 02:59:18;;;;;;;;;;;17.00;91.60;;;;;;5080182;28;20284;-69
2021/07/06 03:01:44;;;;;;;;;;;17.00;91.80;;;;;;5079007;28;20003;-69
2021/07/06 03:04:09;;;;;;;;;;;17.00;91.90;;;;;;5078623;28;20026;-68
2021/07/06 03:06:35;;;;;;;;;;;16.90;91.90;;;;;;5064309;28;19958;-68
2021/07/06 03:09:00;;;;;;;;;;;16.90;92.10;;;;;;5083595;28;19919;-68
2021/07/06 03:11:26;;;;;;;;;;;16.90;92.30;;;;;;5075229;28;19916;-68
2021/07/06 03:13:52;;;;;;;;;;;16.90;92.50;;;;;;5074966;28;20011;-69
2021/07/06 03:16:17;;;;;;;;;;;16.90;92.50;;;;;;5075026;28;20006;-69
2021/07/06 03:18:43;;;;;;;;;;;16.90;92.50;;;;;;5082809;28;19912;-68
2021/07/06 03:21:08;;;;;;;;;;;16.80;92.50;;;;;;5083516;28;19916;-69
2021/07/06 03:23:34;;;;;;;;;;;16.80;92.60;;;;;;5081508;28;19912;-68
2021/07/06 03:25:59;;;;;;;;;;;16.80;92.60;;;;;;5073504;28;19995;-69
2021/07/06 03:28:25;;;;;;;;;;;16.70;92.70;;;;;;5080506;28;19912;-68
2021/07/06 03:30:50;;;;;;;;;;;16.70;92.80;;;;;;5067104;28;20015;-68
2021/07/06 03:33:16;;;;;;;;;;;16.70;92.90;;;;;;5079420;28;19920;-68
2021/07/06 03:35:42;;;;;;;;;;;16.70;92.90;;;;;;5076200;28;20427;-68
2021/07/06 03:38:07;;;;;;;;;;;16.70;92.90;;;;;;5080479;28;19928;-68
2021/07/06 03:40:33;;;;;;;;;;;16.80;92.90;;;;;;5080558;28;20010;-69
2021/07/06 03:42:59;;;;;;;;;;;16.80;93.00;;;;;;5080589;28;19999;-68
2021/07/06 03:45:25;;;;;;;;;;;16.80;92.90;;;;;;5078051;28;20015;-68
2021/07/06 03:47:50;;;;;;;;;;;16.80;92.80;;;;;;5083271;28;20343;-68
2021/07/06 03:50:18;;;;;;;;;;;16.80;92.80;;;;;;5083177;28;20039;-68
2021/07/06 03:52:48;;;;;;;;;;;16.90;93.00;;;;;;5057341;28;20288;-69
2021/07/06 03:55:14;;;;;;;;;;;16.80;92.70;;;;;;5081606;28;19912;-68
2021/07/06 03:57:41;;;;;;;;;;;16.90;92.80;;;;;;5077527;28;19919;-69
2021/07/06 04:00:08;;;;;;;;;;;16.90;92.90;;;;;;5075399;28;19943;-68
2021/07/06 04:02:33;;;;;;;;;;;16.90;92.80;;;;;;5079758;28;19995;-68
2021/07/06 04:04:59;;;;;;;;;;;16.90;92.70;;;;;;5075374;28;20007;-68
2021/07/06 04:07:24;;;;;;;;;;;17.00;92.60;;;;;;5072936;28;19913;-68
2021/07/06 04:09:50;;;;;;;;;;;17.00;92.50;;;;;;5078160;28;19962;-68
2021/07/06 04:12:15;;;;;;;;;;;17.00;92.50;;;;;;5071409;28;19952;-68
2021/07/06 04:14:41;;;;;;;;;;;17.00;92.30;;;;;;5074225;28;19916;-68
2021/07/06 04:17:06;;;;;;;;;;;17.10;92.20;;;;;;5075807;28;20426;-68
2021/07/06 04:19:32;;;;;;;;;;;17.10;92.30;;;;;;5069719;28;19923;-68
2021/07/06 04:21:57;;;;;;;;;;;17.10;92.20;;;;;;5073287;28;20281;-67
2021/07/06 04:24:23;;;;;;;;;;;17.20;92.20;;;;;;5077325;28;19920;-69
2021/07/06 04:26:48;;;;;;;;;;;17.30;92.10;;;;;;5080297;28;19912;-68
2021/07/06 04:29:14;;;;;;;;;;;17.30;92.10;;;;;;5081381;28;19981;-69
2021/07/06 04:31:39;;;;;;;;;;;17.30;92.00;;;;;;5073760;28;19919;-68
2021/07/06 04:34:05;;;;;;;;;;;17.40;91.90;;;;;;5069862;28;20141;-67
2021/07/06 04:36:30;;;;;;;;;;;17.40;91.80;;;;;;5080606;28;20152;-68
2021/07/06 04:38:56;;;;;;;;;;;17.40;91.90;;;;;;5078575;28;19931;-68
2021/07/06 04:41:21;;;;;;;;;;;17.40;91.80;;;;;;5071808;28;20434;-68
2021/07/06 04:43:47;;;;;;;;;;;17.40;91.80;;;;;;5081086;28;20364;-68
2021/07/06 04:46:13;;;;;;;;;;;17.40;92.00;;;;;;5081723;28;19924;-69
2021/07/06 04:48:38;;;;;;;;;;;17.40;92.00;;;;;;5083333;28;20011;-68
2021/07/06 04:51:06;;;;;;;;;;;17.40;92.00;;;;;;5086659;28;19920;-68
2021/07/06 04:53:32;;;;;;;;;;;17.40;92.00;;;;;;5086210;28;20319;-68
2021/07/06 04:55:58;;;;;;;;;;;17.50;91.90;;;;;;5082918;28;19931;-68
2021/07/06 04:58:24;;;;;;;;;;;17.50;91.90;;;;;;5082928;28;20023;-68
2021/07/06 05:00:50;;;;;;;;;;;17.60;91.60;;;;;;5083304;28;20007;-68
2021/07/06 05:03:15;;;;;;;;;;;17.70;91.40;;;;;;5084839;28;19984;-68
2021/07/06 05:05:41;;;;;;;;;;;17.70;91.60;;;;;;5086559;28;20901;-68
2021/07/06 05:08:09;;;;;;;;;;;17.80;91.10;;;;;;5085472;28;19957;-69
2021/07/06 05:10:35;;;;;;;;;;;17.80;91.00;;;;;;5075187;28;19920;-68
2021/07/06 05:13:01;;;;;;;;;;;18.00;91.00;;;;;;5075031;28;19912;-69
2021/07/06 05:15:26;;;;;;;;;;;18.10;90.60;;;;;;5072130;28;19912;-68
2021/07/06 05:17:52;;;;;;;;;;;18.20;90.30;;;;;;5078010;28;20420;-68
2021/07/06 05:20:17;;;;;;;;;;;18.20;90.10;;;;;;5074294;28;20272;-68
2021/07/06 05:22:43;;;;;;;;;;;18.30;90.10;;;;;;5081672;28;19919;-69
2021/07/06 05:25:09;;;;;;;;;;;18.40;90.00;;;;;;5082490;28;19912;-68
2021/07/06 05:27:34;;;;;;;;;;;18.30;89.90;;;;;;5084773;28;19938;-68
2021/07/06 05:30:00;;;;;;;;;;;18.40;89.50;;;;;;5071468;28;19992;-68
2021/07/06 05:32:25;;;;;;;;;;;18.50;89.60;;;;;;5074873;28;20097;-68
2021/07/06 05:34:52;;;;;;;;;;;18.50;89.60;;;;;;5084761;28;20308;-69
2021/07/06 05:37:17;;;;;;;;;;;18.50;89.30;;;;;;5070525;28;19923;-69
2021/07/06 05:39:44;;;;;;;;;;;18.60;89.70;;;;;;5085133;28;19920;-69
2021/07/06 05:42:09;;;;;;;;;;;18.60;89.30;;;;;;5081251;28;19916;-68
2021/07/06 05:44:35;;;;;;;;;;;18.60;89.10;;;;;;5074156;28;20019;-68
2021/07/06 05:47:00;;;;;;;;;;;18.70;88.90;;;;;;5082006;28;19944;-68
2021/07/06 05:49:26;;;;;;;;;;;18.70;88.90;;;;;;5082242;28;19966;-69
2021/07/06 05:51:52;;;;;;;;;;;18.80;88.80;;;;;;5080760;28;19959;-69
2021/07/06 05:54:17;;;;;;;;;;;18.80;88.80;;;;;;5077875;28;20049;-68
2021/07/06 05:56:42;;;;;;;;;;;18.80;88.80;;;;;;5084990;28;19965;-69
2021/07/06 05:59:08;;;;;;;;;;;18.70;89.30;;;;;;5083845;28;19953;-68
2021/07/06 06:01:34;;;;;;;;;;;18.70;89.40;;;;;;5079371;28;19989;-69
2021/07/06 06:04:00;;;;;;;;;;;18.60;89.10;;;;;;5078081;28;20340;-69
2021/07/06 06:06:26;;;;;;;;;;;18.70;89.00;;;;;;5076738;28;19916;-69
2021/07/06 06:08:52;;;;;;;;;;;19.00;89.40;;;;;;5077421;28;20253;-69
2021/07/06 06:11:17;;;;;;;;;;;19.20;88.30;;;;;;5085995;28;19978;-69
2021/07/06 06:13:42;;;;;;;;;;;19.40;87.40;;;;;;5083814;28;19973;-69
2021/07/06 06:16:08;;;;;;;;;;;19.60;87.60;;;;;;5084584;28;19989;-68
2021/07/06 06:18:34;;;;;;;;;;;19.80;85.80;;;;;;5081511;28;20047;-70
2021/07/06 06:21:00;;;;;;;;;;;19.80;85.40;;;;;;5075912;28;19916;-69
2021/07/06 06:23:25;;;;;;;;;;;19.80;85.40;;;;;;5074434;28;19969;-70
2021/07/06 06:25:51;;;;;;;;;;;19.70;85.70;;;;;;5076450;28;19935;-70
2021/07/06 06:28:16;;;;;;;;;;;19.60;85.40;;;;;;5084862;28;20011;-69
2021/07/06 06:30:42;;;;;;;;;;;19.50;85.50;;;;;;5074823;28;19932;-69
2021/07/06 06:33:07;;;;;;;;;;;19.70;85.80;;;;;;5074064;28;20426;-69
2021/07/06 06:35:33;;;;;;;;;;;19.80;85.10;;;;;;5074119;28;20024;-69
2021/07/06 06:37:59;;;;;;;;;;;20.10;83.90;;;;;;5080507;28;19916;-68
2021/07/06 06:40:25;;;;;;;;;;;20.50;83.80;;;;;;5082630;28;19916;-70
2021/07/06 06:42:52;;;;;;;;;;;20.80;83.20;;;;;;5083174;28;19969;-70
2021/07/06 06:45:17;;;;;;;;;;;21.00;81.80;;;;;;5074878;28;19920;-70
2021/07/06 06:47:43;;;;;;;;;;;21.30;80.90;;;;;;5065271;28;20288;-69
2021/07/06 06:50:10;;;;;;;;;;;21.30;78.90;;;;;;5077786;28;19927;-69
2021/07/06 06:52:35;;;;;;;;;;;21.20;80.90;;;;;;5075035;28;20284;-69
2021/07/06 06:55:01;;;;;;;;;;;21.00;80.00;;;;;;5072825;28;19916;-69
2021/07/06 06:57:27;;;;;;;;;;;20.90;80.90;;;;;;5075082;28;20277;-69
2021/07/06 06:59:52;;;;;;;;;;;20.70;80.90;;;;;;5081190;28;19923;-70
2021/07/06 07:02:21;;;;;;;;;;;20.60;80.20;;;;;;5075221;28;19916;-69
2021/07/06 07:04:48;;;;;;;;;;;20.50;81.60;;;;;;5068099;28;19928;-69
2021/07/06 07:07:13;;;;;;;;;;;20.50;81.80;;;;;;5079205;28;19967;-69
2021/07/06 07:09:39;;;;;;;;;;;20.50;81.50;;;;;;5083026;28;19968;-69
2021/07/06 07:12:05;;;;;;;;;;;20.70;82.30;;;;;;5084113;28;19916;-69
2021/07/06 07:14:30;;;;;;;;;;;21.00;80.90;;;;;;5078508;28;20305;-69
2021/07/06 07:16:56;;;;;;;;;;;21.30;79.50;;;;;;5071496;28;20491;-70
2021/07/06 07:19:21;;;;;;;;;;;21.60;80.80;;;;;;5078166;28;19927;-70
2021/07/06 07:21:47;;;;;;;;;;;21.80;78.70;;;;;;5070739;28;20295;-70
2021/07/06 07:24:12;;;;;;;;;;;21.80;78.80;;;;;;5074790;28;19969;-70
2021/07/06 07:26:38;;;;;;;;;;;21.90;79.10;;;;;;5065526;28;20247;-69
2021/07/06 07:29:05;;;;;;;;;;;22.00;78.80;;;;;;5078863;28;20011;-70
2021/07/06 07:31:31;;;;;;;;;;;21.90;78.20;;;;;;5074334;28;19927;-70
2021/07/06 07:33:57;;;;;;;;;;;21.80;78.10;;;;;;5081263;28;19920;-70
2021/07/06 07:36:22;;;;;;;;;;;21.90;79.00;;;;;;5076519;28;19931;-69
2021/07/06 07:38:48;;;;;;;;;;;21.90;78.20;;;;;;5079795;28;19932;-70
2021/07/06 07:41:13;;;;;;;;;;;22.00;79.10;;;;;;5076583;28;19908;-70
2021/07/06 07:43:38;;;;;;;;;;;22.00;78.70;;;;;;5079110;28;20423;-70
2021/07/06 07:46:05;;;;;;;;;;;22.00;78.80;;;;;;5077055;28;19920;-70
2021/07/06 07:48:30;;;;;;;;;;;22.40;78.80;;;;;;5067740;28;20059;-70
2021/07/06 07:50:56;;;;;;;;;;;22.50;76.70;;;;;;5083327;28;20295;-70
2021/07/06 07:53:21;;;;;;;;;;;22.80;76.60;;;;;;5078279;28;19927;-68
2021/07/06 07:55:50;;;;;;;;;;;23.10;74.90;;;;;;5073235;28;20482;-70
2021/07/06 07:58:16;;;;;;;;;;;23.10;73.90;;;;;;5074030;28;19960;-70
2021/07/06 08:00:41;;;;;;;;;;;23.30;74.10;;;;;;5081898;28;19920;-70
2021/07/06 08:03:07;;;;;;;;;;;23.60;74.90;;;;;;5081856;28;19958;-71
2021/07/06 08:05:32;;;;;;;;;;;23.70;74.60;;;;;;5080549;28;19991;-70
2021/07/06 08:07:58;;;;;;;;;;;24.00;74.20;;;;;;5083259;28;20018;-71
2021/07/06 08:10:23;;;;;;;;;;;23.90;72.10;;;;;;5065744;28;19913;-71
2021/07/06 08:12:49;;;;;;;;;;;23.90;72.70;;;;;;5082242;28;20344;-69
2021/07/06 08:15:14;;;;;;;;;;;24.20;70.90;;;;;;5076034;28;20398;-72
2021/07/06 08:17:40;;;;;;;;;;;24.40;72.30;;;;;;5076028;28;19911;-71
2021/07/06 08:20:06;;;;;;;;;;;24.60;70.20;;;;;;5064379;28;20023;-70
2021/07/06 08:22:31;;;;;;;;;;;24.50;71.80;;;;;;5063479;28;20336;-70
2021/07/06 08:24:58;;;;;;;;;;;24.90;70.10;;;;;;5076957;28;20407;-71
2021/07/06 08:27:23;;;;;;;;;;;25.50;70.40;;;;;;5081501;28;19918;-70
2021/07/06 08:29:49;;;;;;;;;;;25.00;68.00;;;;;;5071345;28;19998;-70
2021/07/06 08:32:14;;;;;;;;;;;24.30;69.10;;;;;;5083498;28;19939;-69
2021/07/06 08:34:40;;;;;;;;;;;23.90;75.50;;;;;;5074290;28;20036;-70
2021/07/06 08:37:05;;;;;;;;;;;22.50;79.80;;;;;;5075289;28;19969;-69
2021/07/06 08:39:30;;;;;;;;;;;22.00;82.90;;;;;;5077820;28;19912;-70
2021/07/06 08:41:57;;;;;;;;;;;22.00;84.90;;;;;;5080689;28;20482;-70
2021/07/06 08:44:23;;;;;;;;;;;21.90;85.70;;;;;;5078972;28;20388;-69
2021/07/06 08:46:49;;;;;;;;;;;22.00;87.20;;;;;;5072034;28;19977;-69
2021/07/06 08:49:15;;;;;;;;;;;21.90;86.90;;;;;;5076054;28;19912;-69
2021/07/06 08:51:42;;;;;;;;;;;21.90;86.30;;;;;;5075104;28;19920;-70
2021/07/06 08:54:08;;;;;;;;;;;22.00;87.20;;;;;;5076970;28;19932;-69
2021/07/06 08:56:33;;;;;;;;;;;22.10;86.70;;;;;;5073266;28;20043;-70
2021/07/06 08:58:59;;;;;;;;;;;22.40;85.40;;;;;;5079042;28;19920;-70
2021/07/06 09:01:29;;;;;;;;;;;22.60;85.80;;;;;;5077897;28;19981;-70
2021/07/06 09:03:59;;;;;;;;;;;22.90;84.50;;;;;;5068625;28;19965;-70
2021/07/06 09:06:26;;;;;;;;;;;23.10;83.60;;;;;;5078131;28;19928;-69
2021/07/06 09:09:12;;;;;;;;;;;23.30;80.90;;;;;;5079725;28;20130;-70
2021/07/06 09:11:47;;;;;;;;;;;23.40;81.00;;;;;;5077495;28;19926;-70
2021/07/06 09:14:13;;;;;;;;;;;23.60;80.90;;;;;;5067952;28;20384;-70
2021/07/06 09:16:39;;;;;;;;;;;24.00;80.60;;;;;;5075245;28;19920;-70
2021/07/06 09:19:16;;;;;;;;;;;24.40;79.40;;;;;;5075812;28;19920;-69
2021/07/06 09:21:41;;;;;;;;;;;24.40;76.00;;;;;;5070563;28;20027;-69
2021/07/06 09:24:20;;;;;;;;;;;24.20;75.20;;;;;;5078827;28;20022;-69
2021/07/06 09:26:45;;;;;;;;;;;24.10;77.90;;;;;;5073902;28;20012;-69
2021/07/06 09:29:13;;;;;;;;;;;24.20;77.90;;;;;;5081044;28;20010;-70
2021/07/06 09:31:38;;;;;;;;;;;24.00;76.10;;;;;;5080239;28;19935;-70
2021/07/06 09:34:08;;;;;;;;;;;24.00;75.30;;;;;;5078197;28;19996;-70
2021/07/06 09:36:38;;;;;;;;;;;23.90;73.50;;;;;;5083798;28;20372;-70
2021/07/06 09:39:03;;;;;;;;;;;24.20;73.40;;;;;;5085068;28;20051;-71
2021/07/06 09:41:29;;;;;;;;;;;24.60;73.10;;;;;;5084307;28;20380;-70
2021/07/06 09:43:55;;;;;;;;;;;24.70;71.90;;;;;;5084433;28;19973;-69
2021/07/06 09:46:23;;;;;;;;;;;24.80;71.80;;;;;;5081255;28;19962;-70
2021/07/06 09:48:48;;;;;;;;;;;24.50;70.20;;;;;;5083434;28;19912;-69
2021/07/06 09:51:21;;;;;;;;;;;24.40;70.30;;;;;;5081100;28;20369;-70
2021/07/06 09:53:47;;;;;;;;;;;24.40;70.30;;;;;;5075137;28;20310;-69
2021/07/06 09:56:17;;;;;;;;;;;24.40;70.80;;;;;;5073958;28;20383;-68
2021/07/06 09:59:06;;;;;;;;;;;24.40;69.60;;;;;;5084188;28;20331;-70
2021/07/06 10:01:32;;;;;;;;;;;24.40;70.60;;;;;;5083674;28;20018;-70
2021/07/06 10:03:58;;;;;;;;;;;24.10;70.70;;;;;;5085715;28;19996;-70
2021/07/06 10:06:25;;;;;;;;;;;24.00;70.90;;;;;;5077984;28;19990;-70
2021/07/06 10:08:50;;;;;;;;;;;23.90;70.10;;;;;;5081943;28;20301;-70
2021/07/06 10:11:16;;;;;;;;;;;23.60;71.70;;;;;;5077978;28;19958;-69
2021/07/06 10:13:42;;;;;;;;;;;23.50;70.70;;;;;;5070143;28;19916;-69
2021/07/06 10:16:08;;;;;;;;;;;23.50;73.50;;;;;;5082037;28;19919;-69
2021/07/06 10:18:33;;;;;;;;;;;23.40;73.10;;;;;;5081720;28;19970;-69
2021/07/06 10:20:59;;;;;;;;;;;23.30;73.70;;;;;;5079027;28;19956;-69
2021/07/06 10:23:25;;;;;;;;;;;23.20;73.40;;;;;;5075083;28;19926;-69
2021/07/06 10:25:55;;;;;;;;;;;23.10;74.00;;;;;;5079392;28;20002;-69
2021/07/06 10:28:21;;;;;;;;;;;23.00;73.00;;;;;;5079762;28;21637;-70
2021/07/06 10:30:47;;;;;;;;;;;22.90;73.90;;;;;;5075930;28;19928;-69
2021/07/06 10:33:26;;;;;;;;;;;23.00;75.30;;;;;;5060268;28;20586;-68
2021/07/06 10:35:52;;;;;;;;;;;22.90;74.60;;;;;;5078882;28;19920;-70
2021/07/06 10:38:27;;;;;;;;;;;23.00;74.30;;;;;;5081324;28;19916;-69
2021/07/06 10:40:53;;;;;;;;;;;23.00;74.90;;;;;;5083417;28;20381;-69
2021/07/06 10:43:37;;;;;;;;;;;22.90;73.70;;;;;;5074742;28;20087;-69
2021/07/06 10:46:15;;;;;;;;;;;22.80;75.70;;;;;;5054694;28;19988;-70
2021/07/06 10:48:42;;;;;;;;;;;22.70;76.10;;;;;;5066059;28;20550;-69
2021/07/06 10:51:08;;;;;;;;;;;22.50;77.30;;;;;;5073388;28;20022;-71
2021/07/06 10:53:33;;;;;;;;;;;22.50;76.30;;;;;;5077528;28;20002;-69
2021/07/06 10:56:05;;;;;;;;;;;22.40;76.80;;;;;;5074974;28;19927;-69
2021/07/06 10:58:46;;;;;;;;;;;22.40;76.00;;;;;;5081651;28;20256;-69
2021/07/06 11:01:31;;;;;;;;;;;22.30;75.90;;;;;;5070857;28;20037;-70
2021/07/06 11:03:57;;;;;;;;;;;22.40;75.20;;;;;;5076625;28;19912;-69
2021/07/06 11:06:41;;;;;;;;;;;22.40;75.70;;;;;;5073080;28;19947;-69
2021/07/06 11:09:06;;;;;;;;;;;22.40;75.80;;;;;;5082807;28;20105;-69
2021/07/06 11:11:32;;;;;;;;;;;22.30;73.30;;;;;;5084264;28;20085;-69
2021/07/06 11:14:27;;;;;;;;;;;22.20;75.00;;;;;;5082834;28;20313;-69
2021/07/06 11:16:59;;;;;;;;;;;22.30;75.00;;;;;;5066335;28;20319;-69
2021/07/06 11:19:41;;;;;;;;;;;22.40;76.00;;;;;;5082441;28;20369;-69
2021/07/06 11:22:10;;;;;;;;;;;22.50;71.90;;;;;;5045754;28;20372;-69
2021/07/06 11:24:40;;;;;;;;;;;22.50;71.10;;;;;;5076145;28;19912;-69
2021/07/06 11:27:06;;;;;;;;;;;22.50;71.70;;;;;;5079839;28;19938;-69
2021/07/06 11:29:35;;;;;;;;;;;22.40;72.10;;;;;;5070009;28;20026;-68
2021/07/06 11:32:18;;;;;;;;;;;22.40;73.40;;;;;;5075938;28;20064;-69
2021/07/06 11:34:44;;;;;;;;;;;22.40;74.30;;;;;;5082015;28;19999;-69
2021/07/06 11:37:11;;;;;;;;;;;22.40;74.70;;;;;;5079020;28;19917;-69
2021/07/06 11:39:36;;;;;;;;;;;22.40;75.40;;;;;;5075196;28;20411;-69
2021/07/06 11:42:03;;;;;;;;;;;22.30;75.20;;;;;;5070839;28;19947;-70
2021/07/06 11:44:29;;;;;;;;;;;22.20;77.10;;;;;;5082651;28;19912;-70
2021/07/06 11:47:13;;;;;;;;;;;22.10;78.00;;;;;;5082658;28;19916;-69
2021/07/06 11:49:39;;;;;;;;;;;21.90;78.00;;;;;;5082635;28;19920;-69
2021/07/06 11:52:05;;;;;;;;;;;21.70;76.60;;;;;;5083515;28;20253;-69
2021/07/06 11:54:31;;;;;;;;;;;21.70;77.90;;;;;;5064125;28;20056;-70
2021/07/06 11:57:04;;;;;;;;;;;21.60;76.50;;;;;;5079106;28;20487;-69
2021/07/06 11:59:29;;;;;;;;;;;21.60;76.80;;;;;;5082192;28;19916;-69
2021/07/06 12:02:07;;;;;;;;;;;21.60;77.70;;;;;;5068364;28;19938;-68
2021/07/06 12:04:32;;;;;;;;;;;21.50;77.70;;;;;;5053755;28;19931;-68
2021/07/06 12:07:04;;;;;;;;;;;21.40;77.90;;;;;;5076552;28;19912;-69
2021/07/06 12:09:30;;;;;;;;;;;21.40;78.90;;;;;;5072950;28;20252;-69
2021/07/06 12:12:07;;;;;;;;;;;21.50;79.10;;;;;;5074873;28;19916;-68
2021/07/06 12:14:33;;;;;;;;;;;21.40;78.80;;;;;;5077185;28;21440;-68
2021/07/06 12:16:59;;;;;;;;;;;21.40;78.90;;;;;;5076568;28;19920;-68
2021/07/06 12:19:26;;;;;;;;;;;21.40;78.90;;;;;;5078044;28;19922;-67
2021/07/06 12:21:54;;;;;;;;;;;21.40;79.70;;;;;;5074199;28;19923;-68
2021/07/06 12:24:21;;;;;;;;;;;21.30;80.00;;;;;;5080234;28;20318;-67
2021/07/06 12:26:50;;;;;;;;;;;21.20;79.00;;;;;;5078002;28;19923;-67
2021/07/06 12:29:26;;;;;;;;;;;21.20;79.70;;;;;;5073937;28;19999;-67
2021/07/06 12:31:51;;;;;;;;;;;21.20;78.50;;;;;;5075623;28;19967;-68
2021/07/06 12:34:17;;;;;;;;;;;21.20;77.70;;;;;;5072759;28;20019;-69
2021/07/06 12:36:56;;;;;;;;;;;21.40;78.60;;;;;;5074844;28;19930;-68
2021/07/06 12:39:28;;;;;;;;;;;21.50;77.70;;;;;;5076703;28;19920;-67
2021/07/06 12:41:55;;;;;;;;;;;21.50;77.00;;;;;;5077695;28;20344;-70
2021/07/06 12:44:27;;;;;;;;;;;21.50;76.10;;;;;;5075330;28;19920;-67
2021/07/06 12:46:52;;;;;;;;;;;21.50;76.70;;;;;;5075465;28;20351;-69
2021/07/06 12:49:25;;;;;;;;;;;21.50;75.50;;;;;;5078728;28;20011;-70
2021/07/06 12:52:00;;;;;;;;;;;21.50;76.20;;;;;;5076011;28;19927;-69
2021/07/06 12:54:33;;;;;;;;;;;21.60;76.90;;;;;;5076550;28;19968;-68
2021/07/06 12:56:59;;;;;;;;;;;21.70;77.00;;;;;;5074343;28;19977;-69
2021/07/06 12:59:25;;;;;;;;;;;21.60;75.90;;;;;;5074877;28;19912;-69
2021/07/06 13:01:52;;;;;;;;;;;21.60;76.10;;;;;;5078203;28;20330;-69
2021/07/06 13:04:21;;;;;;;;;;;21.70;77.00;;;;;;5076075;28;20354;-68
2021/07/06 13:06:48;;;;;;;;;;;21.80;76.10;;;;;;5077950;28;19928;-69
2021/07/06 13:09:23;;;;;;;;;;;22.00;77.60;;;;;;5077959;28;20022;-69
2021/07/06 13:11:50;;;;;;;;;;;22.50;75.10;;;;;;5082040;28;20368;-69
2021/07/06 13:14:17;;;;;;;;;;;23.50;75.40;;;;;;5076002;28;20105;-71
2021/07/06 13:16:43;;;;;;;;;;;23.80;71.70;;;;;;5079303;28;19942;-69
2021/07/06 13:19:18;;;;;;;;;;;24.40;69.20;;;;;;5083041;28;20000;-71
2021/07/06 13:21:43;;;;;;;;;;;25.00;67.10;;;;;;5073358;28;19912;-69
2021/07/06 13:24:09;;;;;;;;;;;25.80;65.00;;;;;;5077343;28;20423;-70
2021/07/06 13:26:34;;;;;;;;;;;25.90;62.00;;;;;;5075064;28;19913;-70
2021/07/06 13:29:01;;;;;;;;;;;26.50;64.30;;;;;;5077526;28;20372;-70
2021/07/06 13:31:27;;;;;;;;;;;26.70;62.60;;;;;;5078096;28;19920;-70
2021/07/06 13:33:52;;;;;;;;;;;27.20;59.80;;;;;;5077772;28;20006;-71
2021/07/06 13:36:18;;;;;;;;;;;27.20;62.20;;;;;;5077800;28;20341;-70
2021/07/06 13:38:44;;;;;;;;;;;28.00;61.20;;;;;;5077972;28;19920;-70
2021/07/06 13:41:09;;;;;;;;;;;27.70;59.40;;;;;;5079960;28;20391;-70
2021/07/06 13:43:35;;;;;;;;;;;27.50;61.10;;;;;;5081042;28;19991;-70
2021/07/06 13:46:01;;;;;;;;;;;27.40;59.60;;;;;;5081258;28;20360;-70
2021/07/06 13:48:27;;;;;;;;;;;28.30;59.40;;;;;;5078994;28;20488;-70
2021/07/06 13:50:52;;;;;;;;;;;27.50;58.90;;;;;;5079825;28;20267;-71
2021/07/06 13:53:18;;;;;;;;;;;27.80;58.60;;;;;;5080209;28;20288;-71
2021/07/06 13:55:43;;;;;;;;;;;27.40;61.10;;;;;;5078652;28;19920;-71
2021/07/06 13:58:11;;;;;;;;;;;28.10;59.50;;;;;;5080031;28;19919;-70
2021/07/06 14:00:37;;;;;;;;;;;27.20;60.50;;;;;;5079073;28;19931;-71
2021/07/06 14:03:07;;;;;;;;;;;26.20;63.80;;;;;;5082650;28;20273;-70
2021/07/06 14:05:33;;;;;;;;;;;25.60;65.40;;;;;;5079145;28;20350;-70
2021/07/06 14:07:59;;;;;;;;;;;25.40;67.90;;;;;;5079205;28;20357;-70
2021/07/06 14:10:27;;;;;;;;;;;25.50;67.10;;;;;;5079132;28;19990;-70
2021/07/06 14:12:56;;;;;;;;;;;26.00;65.30;;;;;;5082631;28;19973;-71
2021/07/06 14:15:22;;;;;;;;;;;26.30;64.50;;;;;;5080560;28;20305;-69